Time;durP1;ratioP1;P1;durP2;ratioP2;P2;SDS_P1;SDS_P2;PMS_P1;PMS_P2;Temp;Humidity;BMP_temperature;BMP_pressure;BME280_temperature;BME280_humidity;BME280_pressure;Samples;Min_cycle;Max_cycle;Signal;HPM_P1;HPM_P2
2022/04/21 00:01:07;;;;;;;119.77;50.15;;;;;;;1.21;70.69;94050.56;1656501;85;21108;-50
2022/04/21 00:03:34;;;;;;;104.70;47.58;;;;;;;1.26;70.58;94050.11;1664997;84;20978;-49
2022/04/21 00:06:02;;;;;;;89.95;39.65;;;;;;;1.30;70.66;94052.19;1669746;85;20981;-49
2022/04/21 00:08:30;;;;;;;97.65;45.58;;;;;;;1.31;70.56;94042.89;1671426;84;21149;-49
2022/04/21 00:10:56;;;;;;;90.40;43.95;;;;;;;1.36;70.53;94050.56;1661266;85;20974;-49
2022/04/21 00:13:25;;;;;;;78.05;36.85;;;;;;;1.45;70.45;94044.08;1659820;85;21078;-48
2022/04/21 00:15:53;;;;;;;93.60;43.42;;;;;;;1.52;69.92;94043.22;1675937;84;20978;-49
2022/04/21 00:18:21;;;;;;;84.37;40.63;;;;;;;1.54;69.77;94051.11;1670766;84;21101;-50
2022/04/21 00:20:48;;;;;;;89.62;40.08;;;;;;;1.56;69.71;94048.00;1667821;84;21265;-49
2022/04/21 00:23:26;;;;;;;67.92;31.93;;;;;;;1.54;69.30;94041.63;1668237;85;21011;-50
2022/04/21 00:26:00;;;;;;;81.67;37.23;;;;;;;1.46;69.11;94040.77;1656341;85;21013;-48
2022/04/21 00:28:28;;;;;;;101.02;42.83;;;;;;;1.37;69.11;94044.56;1639012;85;21116;-50
2022/04/21 00:30:57;;;;;;;67.22;34.65;;;;;;;1.33;69.51;94040.53;1648436;86;20995;-48
2022/04/21 00:33:24;;;;;;;68.00;32.35;;;;;;;1.25;69.76;94041.02;1677631;84;21876;-50
2022/04/21 00:35:52;;;;;;;58.40;30.05;;;;;;;1.24;70.27;94040.27;1663820;84;20972;-50
2022/04/21 00:38:20;;;;;;;65.90;32.88;;;;;;;1.27;70.05;94042.16;1675036;84;21018;-48
2022/04/21 00:40:49;;;;;;;62.33;32.42;;;;;;;1.32;70.06;94040.36;1670754;84;21063;-49
2022/04/21 00:43:18;;;;;;;62.48;31.55;;;;;;;1.36;69.69;94037.02;1675100;85;21050;-50
2022/04/21 00:45:47;;;;;;;64.72;31.05;;;;;;;1.37;69.54;94039.15;1670992;85;21470;-47
2022/04/21 00:48:14;;;;;;;62.75;30.25;;;;;;;1.36;69.54;94037.02;1671605;85;20958;-48
2022/04/21 00:50:41;;;;;;;56.10;30.32;;;;;;;1.30;69.25;94044.06;1633635;85;21030;-50
2022/04/21 00:53:10;;;;;;;61.60;31.90;;;;;;;1.20;69.33;94042.27;1674189;85;21075;-51
2022/04/21 00:55:37;;;;;;;75.08;34.05;;;;;;;1.17;69.76;94044.40;1666899;84;20981;-48
2022/04/21 00:58:05;;;;;;;71.40;34.98;;;;;;;1.17;69.83;94045.75;1670357;84;21268;-48
2022/04/21 01:00:32;;;;;;;64.65;32.08;;;;;;;1.08;70.07;94041.99;1666283;84;21010;-51
2022/04/21 01:03:01;;;;;;;82.90;36.63;;;;;;;0.93;70.36;94041.39;1674477;85;21030;-50
2022/04/21 01:05:30;;;;;;;84.25;38.48;;;;;;;0.78;70.78;94049.47;1659478;84;21616;-50
2022/04/21 01:08:06;;;;;;;85.60;39.30;;;;;;;0.72;70.97;94042.96;1679419;84;21014;-49
2022/04/21 01:10:37;;;;;;;110.65;49.27;;;;;;;0.67;71.12;94042.05;1684270;84;21102;-50
2022/04/21 01:13:07;;;;;;;94.95;43.45;;;;;;;0.59;71.24;94040.56;1666788;84;21077;-48
2022/04/21 01:15:40;;;;;;;91.47;41.80;;;;;;;0.57;71.54;94042.91;1670376;84;21022;-49
2022/04/21 01:18:07;;;;;;;;;;;;;;;0.54;71.61;94032.11;1672527;84;21168;-49
2022/04/21 01:20:35;;;;;;;85.35;37.40;;;;;;;0.55;71.67;94029.02;1671487;84;20149;-49
2022/04/21 01:23:02;;;;;;;93.03;43.98;;;;;;;0.54;71.85;94023.42;1672490;84;21313;-52
2022/04/21 01:25:38;;;;;;;100.90;45.75;;;;;;;0.54;71.94;94022.06;1675588;84;21018;-49
2022/04/21 01:28:07;;;;;;;94.15;44.35;;;;;;;0.53;72.10;94020.53;1679361;84;21081;-49
2022/04/21 01:30:34;;;;;;;102.12;44.13;;;;;;;0.48;72.33;94020.19;1661426;84;21066;-49
2022/04/21 01:33:00;;;;;;;141.53;59.25;;;;;;;0.48;72.57;94015.56;1662123;85;21100;-51
2022/04/21 01:35:28;;;;;;;124.42;52.23;;;;;;;0.45;72.65;94019.05;1665938;84;21877;-49
2022/04/21 01:43:27;;;;;;;102.53;46.55;;;;;;;0.41;72.88;94006.74;1664240;84;21061;-49
2022/04/21 01:45:54;;;;;;;105.87;42.62;;;;;;;0.32;73.08;94011.27;1670895;84;21479;-48
2022/04/21 01:48:22;;;;;;;107.12;46.90;;;;;;;0.30;73.22;94008.20;1671597;84;21337;-48
2022/04/21 01:50:49;;;;;;;90.45;40.50;;;;;;;0.34;73.24;94007.57;1665077;84;21011;-48
2022/04/21 01:53:16;;;;;;;91.57;38.92;;;;;;;0.34;73.03;94003.52;1659981;85;21129;-49
2022/04/21 01:55:43;;;;;;;94.97;44.45;;;;;;;0.27;72.87;93999.53;1669638;85;20982;-49
2022/04/21 01:58:11;;;;;;;109.42;46.60;;;;;;;0.17;73.03;94000.38;1665633;84;21431;-49
2022/04/21 02:00:39;;;;;;;100.00;44.03;;;;;;;0.13;73.28;94003.70;1668057;85;21152;-50
2022/04/21 02:03:07;;;;;;;93.80;42.80;;;;;;;0.13;73.32;94001.00;1671286;85;21019;-49
2022/04/21 02:05:33;;;;;;;99.28;43.83;;;;;;;0.14;73.38;94001.75;1670015;84;20987;-49
2022/04/21 02:08:00;;;;;;;102.07;44.85;;;;;;;0.16;73.37;93998.06;1668107;85;21148;-49
2022/04/21 02:10:30;;;;;;;106.10;42.23;;;;;;;0.16;73.47;93998.84;1667725;85;21080;-49
2022/04/21 02:12:58;;;;;;;112.28;48.78;;;;;;;0.18;73.54;93992.45;1651597;85;21230;-49
2022/04/21 02:15:26;;;;;;;117.87;49.53;;;;;;;0.19;73.65;93994.58;1669717;84;21462;-49
2022/04/21 02:17:53;;;;;;;110.60;47.95;;;;;;;0.20;73.88;93996.88;1680802;84;20967;-50
2022/04/21 02:20:20;;;;;;;128.02;55.45;;;;;;;0.21;73.86;93997.05;1663287;85;21516;-50
2022/04/21 02:22:47;;;;;;;122.70;56.73;;;;;;;0.15;73.90;93994.61;1676616;85;20975;-50
2022/04/21 02:25:16;;;;;;;109.37;47.53;;;;;;;0.13;74.07;93994.23;1645291;85;21152;-49
2022/04/21 02:27:45;;;;;;;96.00;42.10;;;;;;;0.10;74.35;93987.50;1651063;84;20986;-49
2022/04/21 02:30:15;;;;;;;115.75;52.62;;;;;;;0.12;74.42;93984.59;1660659;84;20993;-49
2022/04/21 02:32:42;;;;;;;125.18;54.75;;;;;;;0.11;74.43;93981.70;1664523;85;21030;-49
2022/04/21 02:35:11;;;;;;;101.10;45.43;;;;;;;0.09;74.55;93981.34;1675507;84;21862;-49
2022/04/21 02:37:46;;;;;;;104.67;48.08;;;;;;;0.16;74.85;93986.67;1680940;84;21867;-49
2022/04/21 02:40:13;;;;;;;107.45;47.90;;;;;;;0.22;74.63;93981.02;1682812;84;20974;-50
2022/04/21 02:42:41;;;;;;;101.58;46.80;;;;;;;0.30;74.61;93987.91;1664421;85;21509;-49
2022/04/21 02:48:38;;;;;;;107.12;51.63;;;;;;;0.24;74.18;93970.56;1763775;79;26339;-49
2022/04/21 02:51:05;;;;;;;128.57;55.38;;;;;;;0.15;74.15;93975.68;1720115;82;21090;-47
2022/04/21 02:59:07;;;;;;;96.32;42.73;;;;;;;0.03;74.22;93960.53;1723885;83;21035;-49
2022/04/21 03:01:34;;;;;;;102.35;45.75;;;;;;;0.03;74.41;93959.19;1743793;81;21118;-48
2022/04/21 03:04:01;;;;;;;89.87;44.75;;;;;;;0.07;74.33;93960.67;1709063;82;20864;-48
2022/04/21 03:06:29;;;;;;;100.50;47.70;;;;;;;0.11;74.07;93960.08;1709416;82;21935;-47
2022/04/21 03:08:55;;;;;;;98.37;48.73;;;;;;;0.15;74.04;93961.38;1733010;82;21138;-48
2022/04/21 03:11:24;;;;;;;147.37;69.17;;;;;;;0.19;74.06;93958.83;1722574;82;21450;-48
2022/04/21 03:13:51;;;;;;;121.95;49.63;;;;;;;0.26;73.88;93960.11;1718252;81;21418;-47
2022/04/21 03:16:19;;;;;;;112.83;45.05;;;;;;;0.25;73.66;93955.87;1734714;81;21039;-47
2022/04/21 03:18:46;;;;;;;112.52;49.83;;;;;;;0.19;73.55;93960.19;1737561;81;21309;-48
2022/04/21 03:26:46;;;;;;;152.43;59.93;;;;;;;-0.16;73.59;93944.09;1748160;81;20974;-48
2022/04/21 03:29:14;;;;;;;127.12;54.15;;;;;;;-0.25;73.93;93947.23;1731984;82;20984;-47
2022/04/21 03:31:44;;;;;;;114.52;50.58;;;;;;;-0.31;74.07;93948.84;1723682;81;21166;-49
2022/04/21 03:34:13;;;;;;;99.62;49.95;;;;;;;-0.36;74.33;93939.03;1728753;82;20998;-48
2022/04/21 03:36:46;;;;;;;81.95;40.43;;;;;;;-0.38;74.79;93944.83;1715016;82;21005;-49
2022/04/21 03:39:12;;;;;;;84.37;38.95;;;;;;;-0.34;74.96;93949.64;1735048;81;21609;-49
2022/04/21 03:41:39;;;;;;;95.17;44.25;;;;;;;-0.36;74.80;93942.52;1740992;82;20994;-48
2022/04/21 03:44:06;;;;;;;106.63;48.38;;;;;;;-0.36;75.02;93944.44;1732122;82;21550;-47
2022/04/21 03:46:34;;;;;;;129.80;62.13;;;;;;;-0.36;75.17;93934.41;1730028;81;21409;-48
2022/04/21 03:49:03;;;;;;;123.55;57.40;;;;;;;-0.34;75.27;93948.29;1713208;83;20952;-49
2022/04/21 03:51:32;;;;;;;118.75;55.10;;;;;;;-0.34;75.21;93941.53;1712148;83;21090;-47
2022/04/21 03:53:59;;;;;;;139.12;60.33;;;;;;;-0.33;75.22;93935.53;1714630;83;21071;-48
2022/04/21 03:56:27;;;;;;;119.67;59.35;;;;;;;-0.31;75.28;93937.25;1718304;83;21166;-48
2022/04/21 03:58:54;;;;;;;122.33;56.83;;;;;;;-0.24;75.33;93939.31;1710959;83;21000;-48
2022/04/21 04:01:22;;;;;;;116.12;56.40;;;;;;;-0.18;75.34;93934.27;1713694;83;20968;-48
2022/04/21 04:03:51;;;;;;;126.47;58.25;;;;;;;-0.08;75.33;93936.88;1717978;83;21016;-47
2022/04/21 04:11:50;;;;;;;117.22;59.20;;;;;;;0.19;74.86;93929.09;1705170;83;21020;-47
2022/04/21 04:14:18;;;;;;;129.95;60.75;;;;;;;0.31;74.59;93921.83;1689553;83;21012;-48
2022/04/21 04:16:45;;;;;;;126.02;52.78;;;;;;;0.36;74.19;93926.80;1699617;83;21566;-47
2022/04/21 04:19:14;;;;;;;114.62;51.05;;;;;;;0.41;74.12;93925.59;1707604;83;20972;-46
2022/04/21 04:21:42;;;;;;;108.32;49.85;;;;;;;0.37;73.97;93929.67;1701590;83;21012;-49
2022/04/21 04:24:10;;;;;;;112.75;52.33;;;;;;;0.32;73.97;93919.31;1708410;83;20976;-47
2022/04/21 04:26:38;;;;;;;117.37;54.13;;;;;;;0.32;74.12;93924.72;1698746;83;21026;-47
2022/04/21 04:29:05;;;;;;;122.85;62.73;;;;;;;0.36;74.36;93920.60;1690791;83;21079;-46
2022/04/21 04:31:33;;;;;;;112.57;56.58;;;;;;;0.44;74.28;93921.48;1681786;83;21068;-48
2022/04/21 04:34:00;;;;;;;163.72;77.62;;;;;;;0.53;74.30;93931.25;1677217;83;21254;-48
2022/04/21 04:36:28;;;;;;;143.13;67.15;;;;;;;0.59;74.34;93927.52;1699806;83;21040;-47
2022/04/21 04:38:55;;;;;;;141.85;62.60;;;;;;;0.65;74.58;93928.61;1709159;83;21071;-47
2022/04/21 04:44:09;;;;;;;87.85;45.55;;;;;;;0.86;74.14;93927.00;1702078;83;20997;-48
2022/04/21 04:46:37;;;;;;;83.58;42.25;;;;;;;0.86;73.82;93922.36;1703016;83;21286;-49
2022/04/21 04:49:07;;;;;;;83.22;43.20;;;;;;;0.86;73.64;93917.52;1690816;83;21503;-47
2022/04/21 04:51:38;;;;;;;102.35;48.35;;;;;;;0.90;73.50;93917.67;1701176;83;21040;-48
2022/04/21 04:54:07;;;;;;;109.85;55.05;;;;;;;0.97;73.63;93913.51;1711157;83;21036;-47
2022/04/21 04:56:36;;;;;;;122.87;64.25;;;;;;;1.12;73.80;93916.22;1704062;83;21066;-48
2022/04/21 04:59:03;;;;;;;131.50;65.50;;;;;;;1.30;73.63;93916.73;1691481;83;21980;-49
2022/04/21 05:01:43;;;;;;;119.20;63.10;;;;;;;1.51;73.22;93918.39;1693141;83;21523;-48
2022/04/21 05:04:20;;;;;;;113.50;60.33;;;;;;;1.67;72.68;93913.88;1700385;83;21015;-49
2022/04/21 05:06:54;;;;;;;110.37;59.25;;;;;;;1.77;72.23;93921.09;1681609;83;20985;-48
2022/04/21 05:09:25;;;;;;;108.85;59.25;;;;;;;1.91;71.97;93915.41;1690977;83;20965;-49
2022/04/21 05:11:55;;;;;;;132.67;62.78;;;;;;;1.98;71.36;93907.93;1668527;84;21172;-48
2022/04/21 05:14:25;;;;;;;112.95;58.78;;;;;;;2.00;71.12;93911.00;1704422;83;20984;-49
2022/04/21 05:16:52;;;;;;;108.63;52.60;;;;;;;2.04;70.88;93915.02;1675320;83;21034;-47
2022/04/21 05:19:21;;;;;;;99.10;49.10;;;;;;;2.07;70.56;93905.47;1702825;83;20964;-48
2022/04/21 05:21:50;;;;;;;147.05;60.40;;;;;;;2.20;70.51;93912.41;1710943;83;21039;-48
2022/04/21 05:24:17;;;;;;;115.67;56.48;;;;;;;2.28;70.06;93907.03;1701506;83;21304;-48
2022/04/21 05:26:46;;;;;;;136.50;65.47;;;;;;;2.38;69.85;93908.22;1696291;83;20963;-47
2022/04/21 05:32:02;;;;;;;156.75;71.75;;;;;;;2.55;69.53;93897.63;1716233;83;21456;-47
2022/04/21 05:34:31;;;;;;;159.43;74.20;;;;;;;2.72;69.44;93899.22;1699698;83;20943;-48
2022/04/21 05:37:01;;;;;;;131.85;66.50;;;;;;;2.94;69.25;93894.14;1692467;83;21154;-47
2022/04/21 05:39:29;;;;;;;135.03;68.80;;;;;;;3.15;68.68;93892.33;1710145;83;21004;-50
2022/04/21 05:41:58;;;;;;;120.62;61.70;;;;;;;3.30;68.28;93884.05;1690620;83;21074;-50
2022/04/21 05:44:29;;;;;;;136.15;67.00;;;;;;;3.48;67.91;93886.56;1681317;83;21050;-48
2022/04/21 05:46:59;;;;;;;118.53;57.38;;;;;;;3.60;67.45;93884.52;1688394;84;21070;-52
2022/04/21 05:49:28;;;;;;;142.13;66.12;;;;;;;3.79;67.42;93885.83;1667069;84;21347;-49
2022/04/21 05:51:56;;;;;;;109.37;55.30;;;;;;;4.00;66.82;93875.01;1669339;82;21213;-51
2022/04/21 05:54:24;;;;;;;112.03;56.80;;;;;;;4.15;66.50;93881.63;1681626;83;21033;-49
2022/04/21 05:56:54;;;;;;;113.37;61.88;;;;;;;4.30;66.08;93882.81;1684548;83;21109;-49
2022/04/21 05:59:22;;;;;;;108.70;60.50;;;;;;;4.49;65.89;93877.25;1679536;83;21033;-51
2022/04/21 06:01:50;;;;;;;100.82;56.80;;;;;;;4.69;65.49;93873.79;1661826;83;21193;-48
2022/04/21 06:04:21;;;;;;;90.12;52.88;;;;;;;4.91;64.64;93867.14;1661602;84;21079;-49
2022/04/21 06:06:46;;;;;;;97.53;56.23;;;;;;;5.06;64.28;93860.88;1675926;82;21601;-52
2022/04/21 06:09:15;;;;;;;88.95;48.40;;;;;;;5.21;64.05;93867.45;1666715;84;21545;-50
2022/04/21 06:11:44;;;;;;;68.97;42.48;;;;;;;5.39;63.56;93867.69;1691536;82;21059;-51
2022/04/21 06:14:12;;;;;;;59.60;37.65;;;;;;;5.60;62.96;93862.95;1675348;83;21795;-49
2022/04/21 06:16:39;;;;;;;70.03;36.33;;;;;;;5.81;63.00;93857.60;1681563;83;21036;-49
2022/04/21 06:19:07;;;;;;;58.55;32.58;;;;;;;6.03;61.96;93854.97;1682983;82;21073;-52
2022/04/21 06:21:36;;;;;;;55.92;28.15;;;;;;;6.24;61.54;93863.23;1682724;82;21102;-49
2022/04/21 06:24:04;;;;;;;41.80;25.37;;;;;;;6.41;60.42;93858.37;1672268;83;21593;-51
2022/04/21 06:26:32;;;;;;;41.85;26.95;;;;;;;6.50;59.06;93866.05;1692725;82;21103;-51
2022/04/21 06:29:02;;;;;;;46.33;27.75;;;;;;;6.62;58.80;93864.47;1679607;83;21537;-49
2022/04/21 06:31:28;;;;;;;45.55;28.25;;;;;;;6.78;58.49;93862.34;1679731;81;21070;-53
2022/04/21 06:33:57;;;;;;;76.70;38.35;;;;;;;6.97;57.95;93867.33;1680572;83;21040;-49
2022/04/21 06:36:24;;;;;;;52.65;34.33;;;;;;;7.10;57.50;93861.95;1676303;82;20998;-53
2022/04/21 06:38:53;;;;;;;46.13;30.92;;;;;;;7.26;56.96;93863.12;1688327;83;21023;-51
2022/04/21 06:41:20;;;;;;;40.12;26.62;;;;;;;7.42;56.44;93862.91;1706414;82;21039;-50
2022/04/21 06:49:22;;;;;;;40.08;26.17;;;;;;;8.00;54.02;93857.70;1682660;83;21043;-49
2022/04/21 06:51:50;;;;;;;28.05;18.57;;;;;;;8.25;52.45;93854.73;1690942;83;21241;-51
2022/04/21 06:54:17;;;;;;;15.43;13.93;;;;;;;8.55;49.54;93855.26;1709732;83;21499;-51
2022/04/21 06:56:48;;;;;;;24.10;14.33;;;;;;;8.88;46.89;93852.08;1673169;83;21089;-52
2022/04/21 06:59:16;;;;;;;32.78;14.68;;;;;;;9.17;45.86;93848.23;1661039;83;21068;-49
2022/04/21 07:01:48;;;;;;;19.42;14.98;;;;;;;9.41;45.50;93845.75;1691385;82;21044;-51
2022/04/21 07:04:17;;;;;;;27.17;16.45;;;;;;;9.68;44.96;93851.78;1669630;82;21909;-52
2022/04/21 07:06:44;;;;;;;25.80;15.60;;;;;;;9.94;44.53;93841.91;1704628;82;21681;-51
2022/04/21 07:09:12;;;;;;;27.93;16.55;;;;;;;10.14;42.50;93851.79;1669312;83;21254;-52
2022/04/21 07:11:40;;;;;;;27.82;17.42;;;;;;;10.26;41.57;93846.08;1682703;82;21106;-57
2022/04/21 07:14:08;;;;;;;38.70;16.70;;;;;;;10.42;41.93;93849.03;1657270;84;21021;-52
2022/04/21 07:16:36;;;;;;;27.25;17.32;;;;;;;10.52;40.61;93851.25;1668879;83;21911;-51
2022/04/21 07:19:04;;;;;;;28.87;16.07;;;;;;;10.53;40.82;93850.66;1666721;83;21066;-51
2022/04/21 07:21:33;;;;;;;32.15;18.23;;;;;;;10.64;41.12;93861.87;1689756;83;21028;-51
2022/04/21 07:24:00;;;;;;;20.77;15.65;;;;;;;10.73;40.58;93860.59;1677649;83;21016;-51
2022/04/21 07:26:28;;;;;;;24.67;16.60;;;;;;;10.79;40.06;93840.83;1685298;83;21077;-51
2022/04/21 07:28:57;;;;;;;30.60;20.77;;;;;;;10.90;40.94;93854.04;1689139;83;21317;-51
2022/04/21 07:31:24;;;;;;;22.98;14.43;;;;;;;11.03;39.67;93875.97;1699763;82;21149;-52
2022/04/21 07:33:52;;;;;;;23.30;14.35;;;;;;;11.05;39.71;93852.86;1689978;82;21111;-52
2022/04/21 07:36:19;;;;;;;27.45;16.10;;;;;;;10.93;39.76;93854.47;1678072;82;21498;-51
2022/04/21 07:38:47;;;;;;;37.48;18.50;;;;;;;10.72;39.67;93866.55;1694932;82;21113;-53
2022/04/21 07:41:14;;;;;;;24.47;15.30;;;;;;;10.60;40.40;93866.80;1695041;83;21109;-52
2022/04/21 07:43:44;;;;;;;20.32;15.32;;;;;;;10.57;40.57;93857.47;1698043;83;21069;-51
2022/04/21 07:46:14;;;;;;;31.10;16.42;;;;;;;10.55;40.13;93862.69;1690182;83;21117;-53
2022/04/21 07:51:28;;;;;;;22.82;14.58;;;;;;;10.45;39.85;93863.21;1683963;83;21048;-52
2022/04/21 07:53:57;;;;;;;22.48;14.68;;;;;;;10.43;40.47;93862.92;1686271;82;21048;-54
2022/04/21 07:56:27;;;;;;;27.73;15.60;;;;;;;10.44;40.70;93863.06;1697162;83;21148;-52
2022/04/21 07:58:56;;;;;;;17.98;13.85;;;;;;;10.48;40.32;93863.65;1696801;83;21105;-53
2022/04/21 08:01:24;;;;;;;28.83;12.33;;;;;;;10.45;40.27;93865.96;1671322;83;21100;-52
2022/04/21 08:03:52;;;;;;;23.20;13.58;;;;;;;10.40;40.02;93866.01;1683830;83;21002;-51
2022/04/21 08:06:20;;;;;;;22.13;13.58;;;;;;;10.38;40.13;93858.81;1705556;82;21187;-52
2022/04/21 08:08:48;;;;;;;14.20;12.75;;;;;;;10.43;40.30;93848.57;1677451;83;21006;-53
2022/04/21 08:11:16;;;;;;;22.10;15.32;;;;;;;10.50;40.47;93862.59;1686991;83;21191;-53
2022/04/21 08:13:44;;;;;;;20.15;14.93;;;;;;;10.51;40.25;93862.11;1680183;83;20988;-53
2022/04/21 08:16:18;;;;;;;18.07;13.65;;;;;;;10.57;40.32;93858.11;1689663;83;21581;-53
2022/04/21 08:18:52;;;;;;;16.75;13.08;;;;;;;10.60;40.88;93850.29;1667835;82;21028;-51
2022/04/21 08:21:24;;;;;;;15.25;12.53;;;;;;;10.63;40.89;93860.34;1671478;83;21076;-49
2022/04/21 08:23:52;;;;;;;19.17;12.50;;;;;;;10.66;40.49;93864.91;1664249;83;21038;-51
2022/04/21 08:34:37;;;;;;;21.27;14.25;;;;;;;10.87;40.56;93859.89;1639660;86;21078;-50
2022/04/21 08:37:05;;;;;;;19.60;14.03;;;;;;;10.87;40.43;93852.23;1618494;85;21126;-51
2022/04/21 08:39:32;;;;;;;16.57;12.28;;;;;;;10.89;40.84;93858.80;1679556;83;21095;-51
2022/04/21 08:42:04;;;;;;;18.80;12.18;;;;;;;11.01;40.39;93857.02;1689707;83;21105;-50
2022/04/21 08:44:31;;;;;;;14.68;11.88;;;;;;;11.13;39.35;93855.38;1701515;82;21151;-51
2022/04/21 08:47:00;;;;;;;21.12;13.28;;;;;;;11.26;39.88;93859.24;1674825;84;21074;-50
2022/04/21 08:49:26;;;;;;;21.50;11.80;;;;;;;11.47;39.81;93861.66;1693158;82;21058;-53
2022/04/21 08:51:56;;;;;;;13.93;11.73;;;;;;;11.52;38.60;93859.60;1670307;83;21025;-50
2022/04/21 08:54:23;;;;;;;18.30;12.13;;;;;;;11.47;39.07;93858.13;1689388;83;21044;-50
2022/04/21 08:56:52;;;;;;;14.15;11.65;;;;;;;11.52;39.59;93858.23;1694601;83;21277;-52
2022/04/21 08:59:20;;;;;;;15.93;10.98;;;;;;;11.63;39.15;93851.58;1692473;83;20979;-51
2022/04/21 09:01:50;;;;;;;14.25;10.93;;;;;;;11.81;39.04;93867.91;1686131;83;21588;-51
2022/04/21 09:04:19;;;;;;;27.15;17.05;;;;;;;11.94;38.39;93857.33;1687858;83;21100;-51
2022/04/21 09:06:48;;;;;;;16.75;10.68;;;;;;;12.08;37.25;93858.58;1681477;83;21378;-50
2022/04/21 09:09:21;;;;;;;19.65;13.78;;;;;;;12.18;37.43;93849.72;1682271;83;22262;-50
2022/04/21 09:11:56;;;;;;;16.90;10.58;;;;;;;12.32;37.77;93859.19;1676922;83;21101;-52
2022/04/21 09:14:24;;;;;;;18.45;13.80;;;;;;;12.46;38.07;93852.24;1657773;83;21076;-54
2022/04/21 09:16:52;;;;;;;12.15;9.68;;;;;;;12.53;38.24;93854.62;1700394;82;21093;-52
2022/04/21 09:19:19;;;;;;;11.55;9.70;;;;;;;12.46;36.57;93864.66;1657841;83;21096;-51
2022/04/21 09:21:50;;;;;;;15.45;9.60;;;;;;;12.23;37.11;93862.81;1696021;82;21583;-50
2022/04/21 09:24:25;;;;;;;16.80;10.82;;;;;;;12.10;37.49;93859.59;1666768;83;21110;-51
2022/04/21 09:26:53;;;;;;;12.93;9.68;;;;;;;12.07;37.41;93864.70;1676537;83;21564;-53
2022/04/21 09:29:32;;;;;;;20.17;10.93;;;;;;;12.16;37.54;93859.09;1626333;85;21109;-52
2022/04/21 09:32:06;;;;;;;17.07;10.93;;;;;;;12.22;37.11;93860.52;1679734;83;21033;-51
2022/04/21 09:34:31;;;;;;;10.72;9.60;;;;;;;12.22;37.08;93865.44;1675117;83;21039;-50
2022/04/21 09:36:59;;;;;;;20.17;11.83;;;;;;;12.21;37.29;93868.05;1677877;83;21071;-50
2022/04/21 09:39:29;;;;;;;18.92;12.58;;;;;;;12.19;36.23;93870.53;1684316;83;21468;-51
2022/04/21 09:41:56;;;;;;;17.37;11.90;;;;;;;12.08;36.38;93872.36;1674773;83;21071;-50
2022/04/21 09:47:21;;;;;;;14.43;10.43;;;;;;;12.09;37.20;93862.84;1673402;82;22145;-54
2022/04/21 09:49:50;;;;;;;10.63;9.53;;;;;;;12.39;36.46;93862.91;1684803;83;21520;-51
2022/04/21 09:52:32;;;;;;;29.00;11.00;;;;;;;12.60;36.61;93861.09;1689782;83;21577;-54
2022/04/21 09:54:55;;;;;;;25.72;13.13;;;;;;;12.61;36.50;93856.48;1659025;84;21112;-49
2022/04/21 09:57:31;;;;;;;39.48;20.90;;;;;;;12.44;36.51;93868.52;1614542;86;21032;-52
2022/04/21 09:59:59;;;;;;;30.23;22.48;;;;;;;12.26;36.73;93872.88;1677199;82;21649;-50
2022/04/21 10:02:30;;;;;;;29.12;23.57;;;;;;;12.06;36.67;93877.59;1694728;83;21081;-52
2022/04/21 10:04:58;;;;;;;35.85;29.55;;;;;;;11.91;37.48;93869.31;1700971;83;21000;-52
2022/04/21 10:07:27;;;;;;;104.38;71.70;;;;;;;11.94;38.09;93865.60;1678282;83;21068;-52
2022/04/21 10:09:54;;;;;;;96.00;64.10;;;;;;;12.18;37.16;93863.50;1683135;83;21028;-51
2022/04/21 10:12:21;;;;;;;95.12;64.03;;;;;;;12.27;37.34;93870.27;1687245;83;21255;-50
2022/04/21 10:14:48;;;;;;;77.97;56.18;;;;;;;12.31;37.27;93859.82;1692719;83;21241;-51
2022/04/21 10:17:17;;;;;;;83.42;55.28;;;;;;;12.25;37.04;93865.85;1693657;82;21045;-51
2022/04/21 10:23:43;;;;;;;49.03;26.82;;;;;;;12.19;37.90;93887.08;1691181;83;21005;-51
2022/04/21 10:26:09;;;;;;;46.20;34.60;;;;;;;12.33;37.46;93878.02;1676781;83;21154;-51
2022/04/21 10:28:43;;;;;;;20.75;14.28;;;;;;;12.27;37.43;93888.19;1704122;83;21495;-55
2022/04/21 10:31:35;;;;;;;28.50;18.70;;;;;;;12.14;36.82;93882.24;1682577;83;21114;-51
2022/04/21 10:34:07;;;;;;;18.00;13.53;;;;;;;12.20;36.44;93884.45;1695974;83;21067;-51
2022/04/21 10:36:42;;;;;;;31.05;13.98;;;;;;;12.64;36.49;93885.09;1685563;83;21137;-51
2022/04/21 10:39:25;;;;;;;19.98;13.40;;;;;;;12.95;36.51;93886.69;1694958;82;21512;-52
2022/04/21 10:42:14;;;;;;;14.05;11.38;;;;;;;13.10;36.15;93890.15;1698123;82;21020;-50
2022/04/21 10:44:48;;;;;;;26.33;14.50;;;;;;;13.08;35.63;93881.59;1687957;83;21014;-50
2022/04/21 10:47:33;;;;;;;36.17;14.58;;;;;;;12.96;36.13;93881.30;1688918;82;21209;-52
2022/04/21 10:50:13;;;;;;;19.00;12.30;;;;;;;12.73;36.28;93879.47;1683784;83;21062;-53
2022/04/21 10:58:39;;;;;;;17.32;11.73;;;;;;;13.51;35.20;93890.23;1697595;83;21035;-55
2022/04/21 11:01:28;;;;;;;39.20;16.23;;;;;;;13.75;34.71;93894.88;1694802;83;21018;-50
2022/04/21 11:04:17;;;;;;;21.48;14.38;;;;;;;13.75;34.44;93909.48;1654119;83;21096;-50
2022/04/21 11:06:54;;;;;;;19.45;11.90;;;;;;;13.67;34.67;93895.19;1660644;83;21210;-52
2022/04/21 11:09:38;;;;;;;22.22;12.13;;;;;;;13.79;34.90;93902.36;1697797;83;21087;-54
2022/04/21 11:12:07;;;;;;;19.52;13.85;;;;;;;13.83;35.33;93897.36;1687991;82;21187;-53
2022/04/21 11:14:36;;;;;;;22.17;15.28;;;;;;;13.78;34.89;93902.97;1690661;82;21538;-52
2022/04/21 11:17:07;;;;;;;19.48;12.93;;;;;;;13.65;34.88;93899.06;1687167;82;21019;-52
2022/04/21 11:19:37;;;;;;;;;;;;;;;13.66;35.97;93890.27;1702015;83;21080;-53
2022/04/21 11:22:09;;;;;;;14.45;12.78;;;;;;;13.80;35.15;93901.11;1694794;83;20773;-51
2022/04/21 11:25:01;;;;;;;24.67;14.10;;;;;;;14.23;34.53;93884.80;1680666;83;21093;-49
2022/04/21 11:27:31;;;;;;;15.80;13.08;;;;;;;14.87;33.95;93896.21;1692445;83;21065;-51
2022/04/21 11:30:04;;;;;;;21.87;15.13;;;;;;;15.24;33.00;93891.98;1665927;83;21112;-52
2022/04/21 11:32:31;;;;;;;19.55;15.25;;;;;;;15.15;32.77;93901.25;1684381;83;21772;-52
2022/04/21 11:35:13;;;;;;;15.35;11.53;;;;;;;14.95;33.50;93906.95;1695190;83;21103;-51
2022/04/21 11:37:59;;;;;;;13.28;11.83;;;;;;;14.98;33.43;93899.02;1677641;83;21140;-52
2022/04/21 11:40:34;;;;;;;13.80;11.83;;;;;;;14.95;32.96;93905.56;1673052;83;21182;-52
2022/04/21 11:43:15;;;;;;;16.52;11.70;;;;;;;15.07;32.66;93898.84;1679327;83;20979;-52
2022/04/21 11:46:09;;;;;;;15.68;11.22;;;;;;;15.11;32.71;93899.36;1660444;84;21184;-51
2022/04/21 11:48:42;;;;;;;17.17;11.85;;;;;;;15.20;32.59;93899.12;1654178;84;21054;-53
2022/04/21 11:51:14;;;;;;;16.48;11.75;;;;;;;15.08;32.81;93895.42;1669439;82;21036;-52
2022/04/21 11:53:43;;;;;;;16.73;10.98;;;;;;;14.71;33.21;93897.48;1677122;83;22104;-51
2022/04/21 11:56:11;;;;;;;17.98;11.85;;;;;;;14.50;33.35;93891.31;1658265;83;21088;-51
2022/04/21 11:58:40;;;;;;;17.57;12.88;;;;;;;14.31;33.54;93886.63;1698369;82;21210;-52
2022/04/21 12:06:51;;;;;;;26.00;13.43;;;;;;;13.84;35.42;93889.20;1681186;83;21100;-51
2022/04/21 12:09:24;;;;;;;24.25;13.50;;;;;;;13.91;35.62;93888.76;1684681;83;21599;-51
2022/04/21 12:11:55;;;;;;;;;;;;;;;14.02;35.39;93886.10;1695797;82;21289;-52
2022/04/21 12:14:28;;;;;;;15.78;11.33;;;;;;;14.08;35.24;93882.14;1682321;83;20186;-49
2022/04/21 12:17:04;;;;;;;17.92;12.37;;;;;;;13.93;35.25;93880.73;1686740;82;21099;-51
2022/04/21 12:19:45;;;;;;;19.92;15.68;;;;;;;13.78;36.25;93878.73;1700011;83;21031;-51
2022/04/21 12:22:20;;;;;;;22.87;12.30;;;;;;;13.74;35.40;93875.39;1663391;84;21036;-52
2022/04/21 12:24:55;;;;;;;15.65;12.73;;;;;;;13.82;35.80;93880.64;1710571;83;21083;-51
2022/04/21 12:27:34;;;;;;;16.50;13.18;;;;;;;13.82;35.19;93875.86;1688716;82;21676;-53
2022/04/21 12:30:08;;;;;;;17.90;12.40;;;;;;;13.63;35.46;93878.06;1696669;83;21100;-52
2022/04/21 12:32:39;;;;;;;24.10;12.55;;;;;;;13.43;35.75;93876.73;1693568;82;21019;-53
2022/04/21 12:35:09;;;;;;;25.20;12.53;;;;;;;13.09;36.38;93882.47;1698420;82;21535;-53
2022/04/21 12:37:44;;;;;;;22.87;12.90;;;;;;;12.81;36.83;93870.91;1683106;83;21538;-53